createdAt,value
2019-04-11T00:01:36.862Z,10.93
2019-04-11T00:04:04.591Z,11.53
2019-04-11T00:06:35.977Z,11.63
2019-04-11T00:09:12.031Z,11.13
2019-04-11T00:11:44.213Z,11.63
2019-04-11T00:14:15.913Z,12.23
2019-04-11T00:16:47.724Z,11.73
2019-04-11T00:19:19.060Z,11.67
2019-04-11T00:21:50.395Z,11.27
2019-04-11T00:24:22.677Z,12.03
2019-04-11T00:26:54.876Z,11.03
2019-04-11T00:29:26.213Z,11.20
2019-04-11T00:31:57.530Z,10.77
2019-04-11T00:34:29.426Z,11.53
2019-04-11T00:37:00.980Z,11.97
2019-04-11T00:39:32.288Z,11.97
2019-04-11T00:42:04.106Z,12.77
2019-04-11T00:44:35.489Z,14.40
2019-04-11T00:47:07.159Z,13.60
2019-04-11T00:49:38.769Z,15.17
2019-04-11T00:52:10.055Z,14.23
2019-04-11T00:54:41.441Z,14.63
2019-04-11T00:57:12.808Z,14.27
2019-04-11T00:59:44.702Z,13.43
2019-04-11T01:02:15.965Z,12.90
2019-04-11T01:04:48.778Z,13.10
2019-04-11T01:07:20.058Z,13.53
2019-04-11T01:09:51.335Z,12.47
2019-04-11T01:12:22.856Z,12.63
2019-04-11T01:14:55.220Z,13.53
2019-04-11T01:17:29.589Z,14.17
2019-04-11T01:20:00.882Z,13.73
2019-04-11T01:22:32.141Z,12.97
2019-04-11T01:25:04.160Z,13.97
2019-04-11T01:27:36.246Z,14.17
2019-04-11T01:30:11.698Z,14.43
2019-04-11T01:32:42.940Z,13.93
2019-04-11T01:35:15.215Z,13.80
2019-04-11T01:37:46.522Z,13.63
2019-04-11T01:40:18.083Z,13.47
2019-04-11T01:42:49.426Z,13.50
2019-04-11T01:45:22.381Z,15.33
2019-04-11T01:47:59.416Z,14.87
2019-04-11T01:50:32.997Z,14.37
2019-04-11T01:53:04.302Z,14.53
2019-04-11T01:55:36.654Z,14.90
2019-04-11T01:58:08.676Z,15.40
2019-04-11T02:01:01.564Z,15.40
2019-04-11T02:03:50.291Z,16.30
2019-04-11T02:06:23.664Z,14.43
2019-04-11T02:08:55.668Z,13.30
2019-04-11T02:11:27.702Z,14.83
2019-04-11T02:14:09.863Z,15.30
2019-04-11T02:16:32.765Z,14.63
2019-04-11T02:19:04.698Z,14.90
2019-04-11T02:21:36.048Z,14.80
2019-04-11T02:24:30.036Z,14.33
2019-04-11T02:27:21.130Z,15.07
2019-04-11T02:29:53.106Z,14.37
2019-04-11T02:32:27.044Z,14.87
2019-04-11T02:34:59.318Z,15.03
2019-04-11T02:37:33.462Z,14.63
2019-04-11T02:40:07.599Z,15.03
2019-04-11T02:42:41.050Z,16.73
2019-04-11T02:45:25.006Z,15.60
2019-04-11T02:47:48.496Z,13.73
2019-04-11T02:50:21.966Z,14.63
2019-04-11T02:52:52.884Z,15.20
2019-04-11T02:55:25.173Z,14.33
2019-04-11T02:57:59.072Z,14.93
2019-04-11T03:00:31.092Z,14.03
2019-04-11T03:03:03.555Z,14.70
2019-04-11T03:05:37.508Z,14.40
2019-04-11T03:08:13.606Z,13.67
2019-04-11T03:10:43.065Z,14.93
2019-04-11T03:13:16.844Z,13.67
2019-04-11T03:16:07.179Z,13.83
2019-04-11T03:18:40.739Z,13.77
2019-04-11T03:20:59.862Z,13.27
2019-04-11T03:23:28.593Z,14.00
2019-04-11T03:26:00.681Z,14.20
2019-04-11T03:28:34.024Z,14.40
2019-04-11T03:31:42.457Z,14.10
2019-04-11T03:34:44.583Z,13.77
2019-04-11T03:39:13.232Z,14.43
2019-04-11T03:41:37.267Z,13.83
2019-04-11T03:44:04.281Z,14.70
2019-04-11T03:46:48.292Z,12.80
2019-04-11T03:49:16.858Z,14.40
2019-04-11T03:51:36.437Z,13.70
2019-04-11T03:54:09.726Z,14.57
2019-04-11T03:56:43.309Z,14.60
2019-04-11T03:59:16.725Z,14.53
2019-04-11T04:01:49.353Z,13.87
2019-04-11T04:04:21.850Z,15.00
2019-04-11T04:06:55.856Z,14.63
2019-04-11T04:09:29.537Z,13.83
2019-04-11T04:12:02.729Z,13.07
2019-04-11T04:14:44.599Z,13.60
2019-04-11T04:17:25.347Z,14.83
2019-04-11T04:20:19.354Z,14.60
2019-04-11T04:23:07.655Z,14.23
2019-04-11T04:25:42.732Z,14.90
2019-04-11T04:28:14.235Z,14.07
2019-04-11T04:30:47.026Z,13.27
2019-04-11T04:33:20.170Z,13.40
2019-04-11T04:35:52.448Z,13.60
2019-04-11T04:38:24.771Z,13.07
2019-04-11T04:41:16.367Z,14.00
2019-04-11T04:43:36.229Z,13.93
2019-04-11T04:46:23.527Z,14.37
2019-04-11T04:48:41.153Z,14.10
2019-04-11T04:51:14.171Z,13.30
2019-04-11T04:53:46.012Z,14.63
2019-04-11T04:56:22.837Z,13.50
2019-04-11T04:58:50.791Z,13.60
2019-04-11T05:01:23.884Z,12.83
2019-04-11T05:03:56.377Z,13.90
2019-04-11T05:06:28.286Z,13.30
2019-04-11T05:09:00.230Z,14.10
2019-04-11T05:11:31.974Z,14.40
2019-04-11T05:14:04.924Z,14.63
2019-04-11T05:16:37.606Z,14.27
2019-04-11T05:19:09.562Z,14.93
2019-04-11T05:21:41.435Z,14.67
2019-04-11T05:24:14.496Z,13.43
2019-04-11T05:26:46.019Z,14.63
2019-04-11T05:29:17.474Z,14.03
2019-04-11T05:31:49.241Z,13.80
2019-04-11T05:34:20.839Z,14.83
2019-04-11T05:36:53.254Z,13.77
2019-04-11T05:39:25.458Z,13.73
2019-04-11T05:41:56.835Z,14.73
2019-04-11T05:44:28.487Z,13.60
2019-04-11T05:47:02.633Z,13.77
2019-04-11T05:49:42.471Z,13.40
2019-04-11T05:52:13.997Z,13.27
2019-04-11T05:54:49.773Z,13.60
2019-04-11T05:57:24.272Z,13.80
2019-04-11T05:59:55.177Z,14.03
2019-04-11T06:02:39.452Z,13.07
2019-04-11T06:05:23.973Z,14.43
2019-04-11T06:07:59.998Z,13.27
2019-04-11T06:10:45.010Z,12.90
2019-04-11T06:13:48.890Z,12.93
2019-04-11T06:16:20.841Z,12.90
2019-04-11T06:19:16.503Z,12.90
2019-04-11T06:21:50.516Z,12.93
2019-04-11T06:24:56.504Z,11.77
2019-04-11T06:27:36.009Z,12.73
2019-04-11T06:30:46.456Z,13.37
2019-04-11T06:33:20.704Z,12.53
2019-04-11T06:36:06.516Z,12.40
2019-04-11T06:38:47.080Z,12.97
2019-04-11T06:41:28.841Z,12.57
2019-04-11T06:44:06.892Z,12.90
2019-04-11T06:47:03.786Z,11.37
2019-04-11T06:49:45.055Z,11.43
2019-04-11T06:52:16.842Z,11.80
2019-04-11T06:55:07.307Z,12.80
2019-04-11T06:57:38.959Z,11.77
2019-04-11T07:00:10.946Z,12.50
2019-04-11T07:02:45.167Z,11.87
2019-04-11T07:05:18.316Z,11.83
2019-04-11T07:07:51.775Z,11.87
2019-04-11T07:10:28.551Z,12.53
2019-04-11T07:13:05.523Z,12.37
2019-04-11T07:15:40.366Z,12.33
2019-04-11T07:18:31.121Z,12.33
2019-04-11T07:21:06.222Z,10.83
2019-04-11T07:23:55.676Z,11.80
2019-04-11T07:26:30.238Z,10.07
2019-04-11T07:29:23.877Z,10.70
2019-04-11T07:32:16.237Z,10.40
2019-04-11T07:35:17.257Z,9.67
2019-04-11T07:37:51.061Z,9.13
2019-04-11T07:40:56.647Z,8.83
2019-04-11T07:43:31.266Z,9.58
2019-04-11T07:46:25.592Z,9.40
2019-04-11T07:49:03.938Z,9.70
2019-04-11T07:51:48.717Z,8.88
2019-04-11T07:54:22.352Z,8.68
2019-04-11T07:57:19.377Z,9.10
2019-04-11T08:00:20.489Z,8.90
2019-04-11T08:03:12.258Z,9.75
2019-04-11T08:06:17.937Z,9.10
2019-04-11T08:09:08.068Z,9.58
2019-04-11T08:11:48.494Z,8.78
2019-04-11T08:14:39.018Z,9.43
2019-04-11T08:17:35.538Z,8.58
2019-04-11T08:20:17.311Z,9.75
2019-04-11T08:22:57.167Z,10.78
2019-04-11T08:26:06.128Z,10.10
2019-04-11T08:28:38.137Z,10.25
2019-04-11T08:31:28.785Z,18.27
2019-04-11T08:34:03.038Z,8.40
2019-04-11T08:36:52.184Z,8.43
2019-04-11T08:39:45.383Z,9.63
2019-04-11T08:42:37.251Z,9.28
2019-04-11T08:45:10.804Z,8.73
2019-04-11T08:47:49.288Z,11.38
2019-04-11T08:50:22.715Z,11.48
2019-04-11T08:53:06.544Z,8.83
2019-04-11T08:55:50.382Z,10.70
2019-04-11T08:58:33.611Z,9.70
2019-04-11T09:01:06.001Z,10.90
2019-04-11T09:03:59.276Z,9.73
2019-04-11T09:06:25.514Z,9.80
2019-04-11T09:09:17.321Z,10.38
2019-04-11T09:12:07.795Z,9.83
2019-04-11T09:15:05.583Z,10.05
2019-04-11T09:17:53.514Z,10.38
2019-04-11T09:20:48.280Z,10.38
2019-04-11T09:23:22.482Z,8.60
2019-04-11T09:26:25.635Z,9.83
2019-04-11T09:28:59.652Z,9.20
2019-04-11T09:31:49.369Z,9.60
2019-04-11T09:34:30.649Z,8.73
2019-04-11T09:37:20.325Z,8.58
2019-04-11T09:40:26.314Z,9.23
2019-04-11T09:43:11.510Z,9.15
2019-04-11T09:45:57.884Z,8.43
2019-04-11T09:48:54.410Z,8.43
2019-04-11T09:52:02.830Z,8.83
2019-04-11T09:54:51.062Z,8.43
2019-04-11T09:57:24.935Z,8.83
2019-04-11T10:00:28.721Z,9.10
2019-04-11T10:03:15.911Z,8.67
2019-04-11T10:06:03.004Z,8.97
2019-04-11T10:08:51.766Z,9.10
2019-04-11T10:11:40.573Z,8.87
2019-04-11T10:14:13.989Z,8.77
2019-04-11T10:17:04.446Z,8.07
2019-04-11T10:19:54.356Z,8.80
2019-04-11T10:22:50.541Z,8.60
2019-04-11T10:25:31.704Z,8.10
2019-04-11T10:28:31.543Z,11.20
2019-04-11T10:31:18.121Z,22.83
2019-04-11T10:33:59.536Z,11.60
2019-04-11T10:36:49.591Z,8.27
2019-04-11T10:40:00.147Z,8.53
2019-04-11T10:42:32.857Z,9.33
2019-04-11T10:45:31.201Z,8.60
2019-04-11T10:48:05.513Z,8.33
2019-04-11T10:51:15.042Z,9.03
2019-04-11T10:53:47.035Z,8.33
2019-04-11T10:56:28.413Z,8.57
2019-04-11T10:59:01.655Z,7.63
2019-04-11T11:02:08.544Z,8.27
2019-04-11T11:04:45.994Z,8.97
2019-04-11T11:07:20.407Z,8.03
2019-04-11T11:10:07.162Z,8.50
2019-04-11T11:13:01.411Z,8.77
2019-04-11T11:15:40.321Z,8.70
2019-04-11T11:18:49.149Z,8.63
2019-04-11T11:21:07.454Z,19.30
2019-04-11T11:23:57.133Z,18.17
2019-04-11T11:26:32.071Z,8.83
2019-04-11T11:29:21.549Z,8.37
2019-04-11T11:31:59.090Z,8.67
2019-04-11T11:34:44.560Z,8.87
2019-04-11T11:37:50.674Z,8.90
2019-04-11T11:40:42.449Z,8.47
2019-04-11T11:43:30.949Z,7.27
2019-04-11T11:46:25.537Z,8.33
2019-04-11T11:48:59.111Z,8.10
2019-04-11T11:51:33.728Z,8.30
2019-04-11T11:54:09.808Z,8.37
2019-04-11T11:56:42.475Z,7.53
2019-04-11T11:59:38.662Z,7.53
2019-04-11T12:02:28.926Z,7.83
2019-04-11T12:05:22.367Z,12.50
2019-04-11T12:08:00.396Z,7.87
2019-04-11T12:10:45.900Z,8.70
2019-04-11T12:13:39.461Z,8.20
2019-04-11T12:16:19.067Z,7.80
2019-04-11T12:19:04.781Z,8.83
2019-04-11T12:21:36.781Z,10.40
2019-04-11T12:24:30.196Z,8.17
2019-04-11T12:27:20.549Z,8.73
2019-04-11T12:30:15.651Z,8.03
2019-04-11T12:32:53.548Z,8.90
2019-04-11T12:35:44.342Z,8.13
2019-04-11T12:38:37.294Z,7.93
2019-04-11T12:41:15.262Z,8.97
2019-04-11T12:44:14.954Z,8.10
2019-04-11T12:46:54.303Z,8.33
2019-04-11T12:49:34.155Z,8.20
2019-04-11T12:52:30.830Z,8.87
2019-04-11T12:55:02.210Z,8.60
2019-04-11T12:57:51.231Z,9.10
2019-04-11T13:00:31.345Z,9.57
2019-04-11T13:03:20.161Z,9.07
2019-04-11T13:05:53.691Z,8.60
2019-04-11T13:08:43.912Z,8.53
2019-04-11T13:11:16.126Z,8.77
2019-04-11T13:13:58.098Z,8.03
2019-04-11T13:16:29.668Z,8.33
2019-04-11T13:19:30.829Z,9.70
2019-04-11T13:22:07.907Z,8.97
2019-04-11T13:25:07.296Z,8.43
2019-04-11T13:27:45.032Z,8.93
2019-04-11T13:30:34.789Z,8.03
2019-04-11T13:33:15.116Z,8.40
2019-04-11T13:36:05.401Z,8.57
2019-04-11T13:38:41.257Z,8.53
2019-04-11T13:41:30.263Z,8.60
2019-04-11T13:44:13.419Z,8.63
2019-04-11T13:47:07.369Z,8.27
2019-04-11T13:49:49.710Z,8.67
2019-04-11T13:52:45.841Z,8.30
2019-04-11T13:55:29.031Z,7.73
2019-04-11T13:58:32.164Z,8.73
2019-04-11T14:01:12.598Z,8.53
2019-04-11T14:04:21.884Z,9.30
2019-04-11T14:06:53.560Z,8.57
2019-04-11T14:09:34.446Z,8.40
2019-04-11T14:12:10.562Z,8.37
2019-04-11T14:14:57.678Z,7.93
2019-04-11T14:17:46.834Z,7.63
2019-04-11T14:20:41.977Z,8.23
2019-04-11T14:23:36.078Z,9.03
2019-04-11T14:26:26.252Z,8.60
2019-04-11T14:29:28.794Z,8.27
2019-04-11T14:32:19.311Z,8.97
2019-04-11T14:35:09.331Z,8.57
2019-04-11T14:38:00.609Z,7.73
2019-04-11T14:40:42.061Z,8.40
2019-04-11T14:43:43.798Z,8.33
2019-04-11T14:46:36.477Z,8.60
2019-04-11T14:49:14.077Z,7.77
2019-04-11T14:52:03.415Z,8.87
2019-04-11T14:54:37.167Z,7.30
2019-04-11T14:57:27.373Z,8.67
2019-04-11T15:00:02.798Z,8.07
2019-04-11T15:02:55.893Z,9.27
2019-04-11T15:05:44.598Z,8.63
2019-04-11T15:08:17.704Z,9.40
2019-04-11T15:11:14.272Z,8.73
2019-04-11T15:13:48.123Z,9.40
2019-04-11T15:16:36.649Z,8.53
2019-04-11T15:19:07.911Z,9.83
2019-04-11T15:22:10.926Z,8.87
2019-04-11T15:24:42.229Z,10.20
2019-04-11T15:27:32.137Z,9.80
2019-04-11T15:30:05.209Z,8.80
2019-04-11T15:32:55.517Z,8.87
2019-04-11T15:35:26.895Z,8.10
2019-04-11T15:38:32.567Z,8.87
2019-04-11T15:41:05.443Z,8.73
2019-04-11T15:43:54.689Z,9.97
2019-04-11T15:46:28.149Z,8.50
2019-04-11T15:49:21.973Z,8.47
2019-04-11T15:52:01.073Z,9.53
2019-04-11T15:54:54.084Z,8.83
2019-04-11T15:57:43.072Z,8.80
2019-04-11T16:00:32.854Z,9.50
2019-04-11T16:03:20.797Z,9.47
2019-04-11T16:06:09.985Z,8.63
2019-04-11T16:08:43.714Z,8.87
2019-04-11T16:11:53.038Z,11.20
2019-04-11T16:14:26.961Z,10.43
2019-04-11T16:17:05.513Z,10.30
2019-04-11T16:19:55.577Z,8.33
2019-04-11T16:22:44.567Z,9.50
2019-04-11T16:25:18.082Z,9.87
2019-04-11T16:28:11.319Z,9.00
2019-04-11T16:30:47.700Z,10.47
2019-04-11T16:33:38.079Z,15.97
2019-04-11T16:36:27.251Z,23.97
2019-04-11T16:39:19.477Z,17.07
2019-04-11T16:42:10.435Z,14.10
2019-04-11T16:45:09.545Z,8.67
2019-04-11T16:47:47.507Z,11.20
2019-04-11T16:50:18.712Z,9.37
2019-04-11T16:52:50.157Z,10.03
2019-04-11T16:55:21.706Z,8.37
2019-04-11T16:57:52.911Z,9.13
2019-04-11T17:00:24.251Z,8.70
2019-04-11T17:02:55.671Z,9.10
2019-04-11T17:05:27.304Z,8.83
2019-04-11T17:08:25.911Z,9.17
2019-04-11T17:11:09.542Z,8.17
2019-04-11T17:13:40.828Z,9.17
2019-04-11T17:16:13.880Z,8.20
2019-04-11T17:18:45.066Z,8.80
2019-04-11T17:21:16.655Z,9.83
2019-04-11T17:23:48.529Z,9.43
2019-04-11T17:26:22.896Z,8.43
2019-04-11T17:28:54.488Z,8.93
2019-04-11T17:31:26.645Z,9.17
2019-04-11T17:34:01.424Z,9.10
2019-04-11T17:36:33.685Z,8.97
2019-04-11T17:39:06.999Z,8.63
2019-04-11T17:41:41.768Z,14.27
2019-04-11T17:44:12.345Z,21.67
2019-04-11T17:46:43.916Z,14.10
2019-04-11T17:49:15.117Z,11.97
2019-04-11T17:51:55.819Z,12.33
2019-04-11T17:54:19.899Z,14.73
2019-04-11T17:56:54.527Z,9.33
2019-04-11T17:59:28.051Z,15.03
2019-04-11T18:01:57.410Z,18.93
2019-04-11T18:04:28.937Z,52.17
2019-04-11T18:07:00.614Z,10.37
2019-04-11T18:09:31.804Z,14.63
2019-04-11T18:12:03.461Z,31.23
2019-04-11T18:14:34.707Z,23.90
2019-04-11T18:17:06.172Z,42.20
2019-04-11T18:19:37.269Z,36.57
2019-04-11T18:22:13.425Z,29.97
2019-04-11T18:24:41.639Z,28.13
2019-04-11T18:27:12.928Z,25.60
2019-04-11T18:29:44.624Z,20.60
2019-04-11T18:32:16.150Z,14.00
2019-04-11T18:34:47.392Z,11.50
2019-04-11T18:37:18.697Z,9.83
2019-04-11T18:39:50.115Z,9.67
2019-04-11T18:42:22.042Z,9.40
2019-04-11T18:44:53.314Z,9.50
2019-04-11T18:47:24.693Z,8.83
2019-04-11T18:49:56.107Z,8.80
2019-04-11T18:52:29.007Z,8.77
2019-04-11T18:55:00.194Z,8.73
2019-04-11T18:57:31.471Z,8.77
2019-04-11T19:00:07.237Z,9.70
2019-04-11T19:02:37.896Z,9.77
2019-04-11T19:05:10.880Z,9.13
2019-04-11T19:07:43.065Z,8.73
2019-04-11T19:10:15.723Z,7.57
2019-04-11T19:12:47.132Z,8.20
2019-04-11T19:15:19.112Z,8.43
2019-04-11T19:17:55.511Z,8.43
2019-04-11T19:20:23.701Z,11.87
2019-04-11T19:22:54.895Z,13.63
2019-04-11T19:25:26.787Z,10.40
2019-04-11T19:27:57.986Z,8.83
2019-04-11T19:30:29.824Z,9.57
2019-04-11T19:33:01.149Z,8.67
2019-04-11T19:35:32.309Z,7.67
2019-04-11T19:38:04.002Z,8.43
2019-04-11T19:40:35.183Z,8.30
2019-04-11T19:43:06.449Z,8.67
2019-04-11T19:45:37.944Z,21.17
2019-04-11T19:48:09.524Z,23.27
2019-04-11T19:50:40.632Z,43.83
2019-04-11T19:53:11.733Z,26.87
2019-04-11T19:55:59.355Z,26.97
2019-04-11T19:58:31.360Z,25.90
2019-04-11T20:01:02.827Z,24.47
2019-04-11T20:03:34.012Z,28.47
2019-04-11T20:06:05.303Z,35.27
2019-04-11T20:08:36.882Z,32.37
2019-04-11T20:11:08.529Z,44.30
2019-04-11T20:13:39.732Z,27.23
2019-04-11T20:16:12.646Z,13.63
2019-04-11T20:18:51.081Z,12.00
2019-04-11T20:21:17.479Z,11.03
2019-04-11T20:23:49.192Z,10.47
2019-04-11T20:26:21.215Z,9.47
2019-04-11T20:28:52.744Z,9.10
2019-04-11T20:31:23.956Z,9.97
2019-04-11T20:33:55.176Z,9.40
2019-04-11T20:36:33.302Z,10.03
2019-04-11T20:38:59.415Z,9.67
2019-04-11T20:41:30.664Z,9.70
2019-04-11T20:44:02.176Z,9.97
2019-04-11T20:46:33.290Z,9.13
2019-04-11T20:49:04.639Z,9.97
2019-04-11T20:51:35.846Z,10.53
2019-04-11T20:54:07.947Z,9.83
2019-04-11T20:56:40.356Z,10.00
2019-04-11T20:59:12.223Z,9.93
2019-04-11T21:01:43.594Z,9.33
2019-04-11T21:04:15.129Z,9.77
2019-04-11T21:06:46.357Z,9.80
2019-04-11T21:09:17.622Z,9.27
2019-04-11T21:11:48.810Z,9.93
2019-04-11T21:14:20.366Z,12.17
2019-04-11T21:16:51.548Z,11.43
2019-04-11T21:19:23.209Z,10.20
2019-04-11T21:21:55.020Z,10.30
2019-04-11T21:24:26.338Z,10.13
2019-04-11T21:26:59.167Z,11.07
2019-04-11T21:29:30.797Z,9.53
2019-04-11T21:32:02.076Z,8.93
2019-04-11T21:34:33.330Z,8.23
2019-04-11T21:37:05.292Z,8.73
2019-04-11T21:39:36.554Z,8.67
2019-04-11T21:42:07.805Z,8.30
2019-04-11T21:44:39.319Z,8.70
2019-04-11T21:47:10.551Z,8.03
2019-04-11T21:49:41.827Z,8.13
2019-04-11T21:52:13.071Z,7.83
2019-04-11T21:54:45.403Z,7.83
2019-04-11T21:57:18.472Z,8.30
2019-04-11T21:59:51.655Z,8.10
2019-04-11T22:02:24.288Z,8.23
2019-04-11T22:04:58.514Z,8.10
2019-04-11T22:07:31.006Z,8.43
2019-04-11T22:10:02.425Z,8.50
2019-04-11T22:12:34.077Z,8.37
2019-04-11T22:15:05.446Z,8.27
2019-04-11T22:17:36.715Z,8.00
2019-04-11T22:20:08.394Z,8.87
2019-04-11T22:22:41.645Z,8.87
2019-04-11T22:25:13.031Z,8.73
2019-04-11T22:27:45.170Z,9.80
2019-04-11T22:30:18.783Z,9.83
2019-04-11T22:32:57.434Z,9.93
2019-04-11T22:35:29.560Z,9.13
2019-04-11T22:38:00.762Z,9.93
2019-04-11T22:40:32.428Z,8.60
2019-04-11T22:43:07.363Z,9.10
2019-04-11T22:45:37.824Z,8.60
2019-04-11T22:48:09.768Z,9.87
2019-04-11T22:50:41.305Z,9.90
2019-04-11T22:53:13.559Z,9.93
2019-04-11T22:55:44.727Z,9.37
2019-04-11T22:58:16.051Z,9.37
2019-04-11T23:00:47.415Z,9.30
2019-04-11T23:03:32.541Z,8.77
2019-04-11T23:06:03.816Z,8.60
2019-04-11T23:08:34.993Z,9.27
2019-04-11T23:11:06.471Z,8.27
2019-04-11T23:13:37.966Z,9.43
2019-04-11T23:16:09.596Z,9.43
2019-04-11T23:18:41.870Z,8.93
2019-04-11T23:21:15.040Z,9.30
2019-04-11T23:23:46.239Z,8.83
2019-04-11T23:26:18.046Z,9.03
2019-04-11T23:28:49.469Z,9.53
2019-04-11T23:31:21.118Z,9.00
2019-04-11T23:33:52.718Z,8.47
2019-04-11T23:36:25.160Z,9.07
2019-04-11T23:38:56.666Z,8.40
2019-04-11T23:41:27.844Z,8.23
2019-04-11T23:43:59.742Z,8.80
2019-04-11T23:46:31.265Z,9.10
2019-04-11T23:49:02.764Z,9.13
2019-04-11T23:51:33.949Z,9.47
2019-04-11T23:54:05.212Z,9.73
2019-04-11T23:56:36.878Z,8.73
2019-04-11T23:59:08.426Z,10.00
